Rechercher aéroport 
image banner adimage banner adimage banner ad
image banner ad

39CN - Ukiah Valley Medical Center

Situé à Ukiah, United States

ICAO - 39CN, IATA -

Données fournies par Airmate  

Information générale

Coordonnées: N39°9'10" W123°12'12"
Élévation : 608 feet MSL.
 
Voir autres Aéroports à California

Données opérationnelles

Special qualification required
Heure actuelle UTC:
Heure actuelle locale:
Météo à : KUKI - Ukiah Muni ( 3 km )
METAR: KUKI 020656Z AUTO 17007KT 10SM CLR 18/10 A3006 RMK AO2 SLP171 T01780100
TAF: KUKI 020536Z 0206/0306 16004KT P6SM SKC FM021100 00000KT 4SM BR FEW002 TEMPO 0212/0215 2SM BR BKN002 FM021600 15004KT P6SM BKN250 FM022000 14009KT P6SM BKN250 FM030000 17010KT P6SM BKN250 FM030300 VRB04KT P6SM SCT250
Voir NOTAMs / SUP AIP / TFR affectant cet aéroport [VIEW]
Fréquences de communication: [VIEW]

Pistes:

Coordonnées de l'aéroport

Adresse: Ukiah United States

Vue satellite de 39CN